Terminal Aerodrome Forecast
Issued by NWS

Home | Current Version | Previous Version | Text Only | Print | Product List | Glossary On
Versions: 1 2 3 4 5 6 7 8 9 10 11 12 13
000
FTUS43 KIND 171138
TAFBMG
TAF
KBMG 171138Z 1712/1812 21006KT P6SM VCSH OVC120
     FM171600 21006KT P6SM -RA OVC090
     FM171900 22006KT P6SM VCSH OVC045
     FM172200 20005KT P6SM OVC040
     FM180300 20005KT P6SM OVC008
     FM180600 22005KT 4SM -DZ OVC004
      AMD LTD TO CLD VIS AND WIND TIL 171400=

USA.gov is the U.S. government's official web portal to all federal, state and local government web resources and services.